• Join FlightAware (Why Join?)
  • Login
  • US Flag 
10:07PM EDT


 

Airport Tracker/Info


-or-


 

Live Flight TrackerFlight Track Log ✈ RPA3496 ✈ 09-May-2014 ✈ KBOS - KPHL

Flight Track Log - Related Links

Times and Time Zones

All times are in EDT time to prevent confusion due to time zone crossing. See the RPA3496 flight status page for this flight to view local times or setup timezone preferences in your user account.

Time Position Orientation Groundspeed Altitude Reporting Facility
EDT Latitude Longitude Course Direction KTS MPH feet Rate Location/Type
12:49PM 42.3667 -70.9667 198° South 166 191 1,100  Level KA90
12:50PM 42.3667 -70.9167 90° East 216 249 2,600 2,460 Climbing KA90
12:51PM 42.3822 -70.8594 70° East 210 242 4,700 2,520 Climbing Boston Center
12:52PM 42.3806 -70.7531 91° East 273 314 7,100 2,460 Climbing Boston Center
12:53PM 42.1941 -70.6304 160° South  Level FlightAware Approximate
12:53PM 42.3122 -70.6939 147° Southeast 301 346 9,900  Level Boston Center
12:54PM 42.0997 -70.6168 198° South  Level FlightAware Approximate
12:54PM 42.2283 -70.6539 161° South 318 366 11,400  Level Boston Center
12:55PM 42.0041 -70.6593 198° South  Level FlightAware Approximate
12:55PM 42.1281 -70.6211 166° South 370 426 13,800  Level Boston Center
12:56PM 42.0319 -70.6619 198° South 366 421 15,800 1,920 Climbing Boston Center
12:57PM 41.9300 -70.7069 198° South 385 443 17,800 1,740 Climbing Boston Center
12:58PM 41.8247 -70.7564 199° South 401 461 19,400 1,860 Climbing Boston Center
12:59PM 41.7067 -70.8450 209° Southwest 406 467 21,600 1,800 Climbing Boston Center
01:00PM 41.6053 -70.9211 209° Southwest 415 478 23,200 1,140 Climbing Boston Center
01:01PM 41.5142 -71.0167 218° Southwest 423 487 24,000 360 Climbing Boston Center
01:02PM 41.4422 -71.1350 231° Southwest 415 478 24,000  Level Boston Center
01:03PM 41.3611 -71.2658 230° Southwest 415 478 24,000  Level Boston Center
01:04PM 41.2878 -71.3822 230° Southwest 414 476 24,000  Level Boston Center
01:05PM 41.2250 -71.4864 231° Southwest 412 474 24,000  Level Boston Center
01:06PM 41.1483 -71.6200 233° Southwest 410 472 24,000  Level Boston Center
01:07PM 41.0739 -71.7408 231° Southwest 421 484 24,000  Level Boston Center
01:08PM 40.9928 -71.8694 230° Southwest 422 486 24,000  Level Boston Center
01:09PM 40.9214 -71.9806 230° Southwest 421 484 24,000  Level Boston Center
01:10PM 40.8458 -72.0986 230° Southwest 421 484 24,000  Level Boston Center
01:11PM 40.7700 -72.2158 230° Southwest 421 484 24,000  Level Boston Center
01:12PM 40.6914 -72.3400 230° Southwest 421 484 24,000 -480 Level Boston Center
01:13PM 40.6164 -72.4550 229° Southwest 420 483 23,100 -960 Descending Boston Center
01:14PM 40.5428 -72.5706 230° Southwest 417 480 22,100 -1,020 Descending Boston Center
01:15PM 40.4694 -72.6833 229° Southwest 411 473 21,100 -1,020 Descending Boston Center
01:16PM 40.3981 -72.7919 229° Southwest 397 457 20,100 -600 Descending Boston Center
01:17PM 40.3128 -72.9222 229° Southwest 396 456 20,000 -60 Descending Boston Center
01:18PM 40.2406 -73.0319 229° Southwest 397 457 20,000  Level Boston Center
01:19PM 40.1706 -73.1394 230° Southwest 398 458 20,000 -60 Level Boston Center
01:20PM 40.0983 -73.2469 229° Southwest 396 456 19,900 -540 Descending Boston Center
01:21PM 40.0272 -73.3556 229° Southwest 396 456 18,900 -960 Descending Boston Center
01:23PM 39.9567 -73.4603 229° Southwest 389 448 17,900 -960 Descending Boston Center
01:24PM 39.8856 -73.5675 229° Southwest 387 445 17,000 -960 Descending Boston Center
01:24PM 39.8211 -73.6708 231° Southwest 398 458 16,200 -600 Descending Washington Center
01:25PM 39.7619 -73.7614 230° Southwest 383 441 16,000 -120 Descending Washington Center
01:26PM 39.6969 -73.8656 231° Southwest 383 441 16,000  Level Washington Center
01:27PM 39.6336 -73.9667 231° Southwest 383 441 16,000 -420 Level Washington Center
01:28PM 39.5664 -74.0706 230° Southwest 383 441 15,200 -1,020 Descending Washington Center
01:29PM 39.5219 -74.1844 243° Southwest 377 434 14,000 -780 Descending Washington Center
01:30PM 39.5253 -74.3108 272° West 345 397 13,700 -780 Descending Washington Center
01:31PM 39.5286 -74.4267 272° West 340 391 12,500 -1,320 Descending Washington Center
01:33PM 39.5333 -74.6667 272° West 316 364 10,000 -900 Descending Philadelphia TRACON
01:34PM 39.5333 -74.7833 270° West 274 315 9,800 -840 Descending Philadelphia TRACON
01:35PM 39.5333 -74.8833 270° West 281 323 8,300 -1,500 Descending Philadelphia TRACON
01:36PM 39.5333 -74.9833 270° West 277 319 6,900 -1,200 Descending Philadelphia TRACON
01:37PM 39.5500 -75.0667 285° West 276 318 6,000 -480 Descending Philadelphia TRACON
01:38PM 39.5500 -75.1667 270° West 278 320 6,000  Level Philadelphia TRACON
01:39PM 39.5667 -75.2667 282° West 278 320 6,000  Level Philadelphia TRACON
01:40PM 39.5833 -75.3500 285° West 233 268 6,000  Level Philadelphia TRACON
01:41PM 39.6167 -75.4333 297° West 233 268 6,000  Level Philadelphia TRACON
01:42PM 39.6667 -75.5000 314° West 239 275 6,000  Level Philadelphia TRACON
01:43PM 39.7167 -75.5167 346° North 220 253 6,000 -780 Level Philadelphia TRACON
01:44PM 39.7833 -75.5333 349° North 194 223 4,500 -1,080 Descending Philadelphia TRACON
01:45PM 39.8167 -75.5000 38° Northeast 200 230 3,900 -1,140 Descending Philadelphia TRACON
01:46PM 39.8333 -75.4167 75° East 192 221 2,300 -1,200 Descending Philadelphia TRACON
01:47PM 39.8500 -75.3500 72° East 184 212 1,300 -900 Descending Philadelphia TRACON
01:49PM 39.8500 -75.3000 90° East 143 165 500 -840 Descending Philadelphia TRACON
01:50PM 39.8667 -75.2333 64° Northeast  Level FlightAware Approximate